createdAt,value
2022-08-02T00:00:39.046Z,14.13
2022-08-02T00:03:06.289Z,12.90
2022-08-02T00:05:33.451Z,8.53
2022-08-02T00:08:00.834Z,7.23
2022-08-02T00:10:28.409Z,7.13
2022-08-02T00:12:58.938Z,7.97
2022-08-02T00:15:27.477Z,9.67
2022-08-02T00:17:54.757Z,9.43
2022-08-02T00:20:22.044Z,8.53
2022-08-02T00:22:49.212Z,8.00
2022-08-02T00:25:16.656Z,12.10
2022-08-02T00:27:44.153Z,20.23
2022-08-02T00:30:12.008Z,22.63
2022-08-02T00:32:39.287Z,19.30
2022-08-02T00:35:07.401Z,20.93
2022-08-02T00:37:40.663Z,19.07
2022-08-02T00:40:10.534Z,14.80
2022-08-02T00:42:39.916Z,14.93
2022-08-02T00:45:08.229Z,15.20
2022-08-02T00:47:36.375Z,17.23
2022-08-02T00:50:04.530Z,15.33
2022-08-02T00:52:31.794Z,18.30
2022-08-02T00:54:59.057Z,16.73
2022-08-02T00:57:26.314Z,15.90
2022-08-02T00:59:53.481Z,14.63
2022-08-02T01:02:20.752Z,14.27
2022-08-02T01:04:47.957Z,12.87
2022-08-02T01:07:15.966Z,10.77
2022-08-02T01:09:44.763Z,11.40
2022-08-02T01:12:13.635Z,11.73
2022-08-02T01:14:45.693Z,11.73
2022-08-02T01:17:44.584Z,12.73
2022-08-02T01:20:21.661Z,9.70
2022-08-02T01:23:10.169Z,9.60
2022-08-02T01:25:59.143Z,9.40
2022-08-02T01:29:08.506Z,9.67
2022-08-02T01:31:57.405Z,8.47
2022-08-02T01:34:44.108Z,8.27
2022-08-02T01:37:20.501Z,7.90
2022-08-02T01:39:54.995Z,8.07
2022-08-02T01:42:25.691Z,7.47
2022-08-02T01:44:55.071Z,7.10
2022-08-02T01:47:28.565Z,7.97
2022-08-02T01:50:00.368Z,7.13
2022-08-02T01:52:37.716Z,6.80
2022-08-02T01:55:19.067Z,6.40
2022-08-02T01:57:54.180Z,6.23
2022-08-02T02:00:25.363Z,6.37
2022-08-02T02:02:57.032Z,6.33
2022-08-02T02:05:29.133Z,6.40
2022-08-02T02:08:00.679Z,6.57
2022-08-02T02:10:35.760Z,6.50
2022-08-02T02:13:07.951Z,7.80
2022-08-02T02:15:41.883Z,6.87
2022-08-02T02:18:13.885Z,6.87
2022-08-02T02:20:43.654Z,8.37
2022-08-02T02:23:13.518Z,7.13
2022-08-02T02:25:46.833Z,7.20
2022-08-02T02:28:30.941Z,7.50
2022-08-02T02:31:14.615Z,6.77
2022-08-02T02:34:01.550Z,6.97
2022-08-02T02:36:31.019Z,6.87
2022-08-02T02:39:03.864Z,7.00
2022-08-02T02:41:31.327Z,6.60
2022-08-02T02:44:03.093Z,6.83
2022-08-02T02:46:32.692Z,7.30
2022-08-02T02:49:02.050Z,7.40
2022-08-02T02:51:31.885Z,6.80
2022-08-02T02:54:33.588Z,6.73
2022-08-02T02:56:48.825Z,7.00
2022-08-02T02:59:18.042Z,7.00
2022-08-02T03:01:57.419Z,8.17
2022-08-02T03:04:55.162Z,6.63
2022-08-02T03:07:15.680Z,6.73
2022-08-02T03:09:43.418Z,6.70
2022-08-02T03:12:11.782Z,6.73
2022-08-02T03:14:44.154Z,6.73
2022-08-02T03:17:11.801Z,7.50
2022-08-02T03:19:39.536Z,7.20
2022-08-02T03:22:06.779Z,6.20
2022-08-02T03:24:33.951Z,10.33
2022-08-02T03:27:01.095Z,6.90
2022-08-02T03:29:31.458Z,6.70
2022-08-02T03:32:02.070Z,6.97
2022-08-02T03:34:29.817Z,7.40
2022-08-02T03:36:59.050Z,6.73
2022-08-02T03:39:27.382Z,6.77
2022-08-02T03:41:56.369Z,6.63
2022-08-02T03:44:25.845Z,6.97
2022-08-02T03:46:54.875Z,6.87
2022-08-02T03:49:22.809Z,7.00
2022-08-02T03:51:50.673Z,7.10
2022-08-02T03:54:33.032Z,7.53
2022-08-02T03:57:03.108Z,7.57
2022-08-02T03:59:45.038Z,9.93
2022-08-02T04:02:14.409Z,7.90
2022-08-02T04:04:42.027Z,7.80
2022-08-02T04:07:09.281Z,8.10
2022-08-02T04:09:36.502Z,7.43
2022-08-02T04:12:04.119Z,7.93
2022-08-02T04:14:35.532Z,7.47
2022-08-02T04:17:11.743Z,12.30
2022-08-02T04:19:50.905Z,10.30
2022-08-02T04:22:43.690Z,8.70
2022-08-02T04:25:17.082Z,7.90
2022-08-02T04:28:15.270Z,8.00
2022-08-02T04:30:35.249Z,8.20
2022-08-02T04:33:03.024Z,8.10
2022-08-02T04:35:31.146Z,7.93
2022-08-02T04:38:09.936Z,8.87
2022-08-02T04:40:38.959Z,9.27
2022-08-02T04:43:06.561Z,8.63
2022-08-02T04:45:34.630Z,8.00
2022-08-02T04:48:05.797Z,6.57
2022-08-02T04:50:34.312Z,6.73
2022-08-02T04:53:01.888Z,5.43
2022-08-02T04:55:30.140Z,5.60
2022-08-02T04:57:59.265Z,5.43
2022-08-02T05:00:29.094Z,5.03
2022-08-02T05:02:57.935Z,5.27
2022-08-02T05:05:25.863Z,5.20
2022-08-02T05:07:54.189Z,4.77
2022-08-02T05:10:21.986Z,4.90
2022-08-02T05:12:49.628Z,5.37
2022-08-02T05:15:18.674Z,4.40
2022-08-02T05:17:48.636Z,4.53
2022-08-02T05:20:19.927Z,4.53
2022-08-02T05:22:47.563Z,4.43
2022-08-02T05:25:15.488Z,4.50
2022-08-02T05:27:42.998Z,3.90
2022-08-02T05:30:11.292Z,4.23
2022-08-02T05:32:52.824Z,3.90
2022-08-02T05:35:25.300Z,4.07
2022-08-02T05:37:53.196Z,3.60
2022-08-02T05:40:25.781Z,3.87
2022-08-02T05:42:55.370Z,4.00
2022-08-02T05:45:23.753Z,3.40
2022-08-02T05:47:51.609Z,3.90
2022-08-02T05:50:20.352Z,3.90
2022-08-02T05:53:02.368Z,3.60
2022-08-02T05:55:39.688Z,3.37
2022-08-02T05:58:36.979Z,3.30
2022-08-02T06:01:06.265Z,3.53
2022-08-02T06:03:43.666Z,3.03
2022-08-02T06:06:14.434Z,2.90
2022-08-02T06:08:49.388Z,4.37
2022-08-02T06:12:01.882Z,3.40
2022-08-02T06:14:34.120Z,3.07
2022-08-02T06:17:05.843Z,2.63
2022-08-02T06:19:36.678Z,2.83
2022-08-02T06:22:42.265Z,3.13
2022-08-02T06:25:11.729Z,2.83
2022-08-02T06:28:04.122Z,3.03
2022-08-02T06:30:43.022Z,2.97
2022-08-02T06:33:14.021Z,2.90
2022-08-02T06:36:03.872Z,2.77
2022-08-02T06:38:49.766Z,2.70
2022-08-02T06:41:20.942Z,2.50
2022-08-02T06:44:19.917Z,2.57
2022-08-02T06:47:10.817Z,3.03
2022-08-02T06:49:52.405Z,7.63
2022-08-02T06:52:31.835Z,3.07
2022-08-02T06:55:01.813Z,2.87
2022-08-02T06:57:31.086Z,2.60
2022-08-02T07:00:02.026Z,4.77
2022-08-02T07:02:31.656Z,3.30
2022-08-02T07:04:59.615Z,2.90
2022-08-02T07:07:28.460Z,3.47
2022-08-02T07:10:00.895Z,2.90
2022-08-02T07:12:34.861Z,3.30
2022-08-02T07:15:06.943Z,3.70
2022-08-02T07:17:35.356Z,2.57
2022-08-02T07:20:04.055Z,9.13
2022-08-02T07:22:32.852Z,2.33
2022-08-02T07:25:08.343Z,2.90
2022-08-02T07:27:36.363Z,2.30
2022-08-02T07:30:05.768Z,2.60
2022-08-02T07:32:34.204Z,2.10
2022-08-02T07:35:04.053Z,2.50
2022-08-02T07:37:55.600Z,2.28
2022-08-02T07:40:26.010Z,1.87
2022-08-02T07:43:02.978Z,2.93
2022-08-02T07:45:35.655Z,1.97
2022-08-02T07:48:04.099Z,2.50
2022-08-02T07:50:31.491Z,2.20
2022-08-02T07:53:00.890Z,3.50
2022-08-02T07:55:39.159Z,1.73
2022-08-02T07:58:12.091Z,2.03
2022-08-02T08:00:43.762Z,2.00
2022-08-02T08:03:15.913Z,1.50
2022-08-02T08:05:44.044Z,2.20
2022-08-02T08:08:17.176Z,2.80
2022-08-02T08:10:45.848Z,2.63
2022-08-02T08:13:15.486Z,1.80
2022-08-02T08:15:52.242Z,1.53
2022-08-02T08:18:22.239Z,1.73
2022-08-02T08:20:52.655Z,4.43
2022-08-02T08:23:20.221Z,2.30
2022-08-02T08:25:48.581Z,2.17
2022-08-02T08:28:17.126Z,2.70
2022-08-02T08:30:44.471Z,1.60
2022-08-02T08:33:11.863Z,1.90
2022-08-02T08:35:39.791Z,2.67
2022-08-02T08:38:10.186Z,3.67
2022-08-02T08:40:37.886Z,2.53
2022-08-02T08:43:06.490Z,2.47
2022-08-02T08:45:33.998Z,8.07
2022-08-02T08:48:13.956Z,4.23
2022-08-02T08:51:01.862Z,3.07
2022-08-02T08:53:36.691Z,3.03
2022-08-02T08:56:05.127Z,2.20
2022-08-02T08:58:32.960Z,3.30
2022-08-02T09:01:00.833Z,2.20
2022-08-02T09:03:28.151Z,6.33
2022-08-02T09:06:06.199Z,2.53
2022-08-02T09:08:33.537Z,2.27
2022-08-02T09:11:20.543Z,4.07
2022-08-02T09:14:05.814Z,2.00
2022-08-02T09:16:42.206Z,2.00
2022-08-02T09:19:29.891Z,5.10
2022-08-02T09:22:13.131Z,2.20
2022-08-02T09:24:49.553Z,2.17
2022-08-02T09:27:21.011Z,2.30
2022-08-02T09:30:12.368Z,2.13
2022-08-02T09:32:50.188Z,2.30
2022-08-02T09:36:06.403Z,2.70
2022-08-02T09:38:27.709Z,2.03
2022-08-02T09:40:59.118Z,1.90
2022-08-02T09:43:51.943Z,1.83
2022-08-02T09:46:38.002Z,2.07
2022-08-02T09:49:09.674Z,2.30
2022-08-02T09:51:50.312Z,2.10
2022-08-02T09:54:30.931Z,2.00
2022-08-02T09:57:01.949Z,2.13
2022-08-02T09:59:30.442Z,2.00
2022-08-02T10:02:04.356Z,2.60
2022-08-02T10:04:34.236Z,2.40
2022-08-02T10:07:19.113Z,2.30
2022-08-02T10:09:48.932Z,2.80
2022-08-02T10:12:16.829Z,2.60
2022-08-02T10:14:46.197Z,2.40
2022-08-02T10:17:16.833Z,2.00
2022-08-02T10:20:00.048Z,2.20
2022-08-02T10:22:34.762Z,2.53
2022-08-02T10:25:04.928Z,3.60
2022-08-02T10:27:49.336Z,2.90
2022-08-02T10:30:24.774Z,2.70
2022-08-02T10:32:54.943Z,2.83
2022-08-02T10:35:26.694Z,3.77
2022-08-02T10:38:08.163Z,3.43
2022-08-02T10:40:54.824Z,2.57
2022-08-02T10:44:00.567Z,2.77
2022-08-02T10:46:37.203Z,2.87
2022-08-02T10:49:38.072Z,2.30
2022-08-02T10:52:01.699Z,2.27
2022-08-02T10:54:41.706Z,2.57
2022-08-02T10:57:31.009Z,2.27
2022-08-02T11:00:03.204Z,2.53
2022-08-02T11:02:40.154Z,2.47
2022-08-02T11:05:11.670Z,2.73
2022-08-02T11:07:49.955Z,3.10
2022-08-02T11:10:39.341Z,2.50
2022-08-02T11:13:15.739Z,2.13
2022-08-02T11:16:09.312Z,2.30
2022-08-02T11:19:06.674Z,2.00
2022-08-02T11:21:36.661Z,2.30
2022-08-02T11:24:31.165Z,2.40
2022-08-02T11:27:02.648Z,2.27
2022-08-02T11:29:51.128Z,2.47
2022-08-02T11:32:30.807Z,2.50
2022-08-02T11:35:00.713Z,2.23
2022-08-02T11:37:48.414Z,2.30
2022-08-02T11:40:20.208Z,2.40
2022-08-02T11:42:50.729Z,2.60
2022-08-02T11:45:29.275Z,2.03
2022-08-02T11:47:57.508Z,1.77
2022-08-02T11:50:29.745Z,2.30
2022-08-02T11:52:59.392Z,2.40
2022-08-02T11:55:31.898Z,2.97
2022-08-02T11:58:08.276Z,3.10
2022-08-02T12:00:36.533Z,2.97
2022-08-02T12:03:04.471Z,1.90
2022-08-02T12:06:05.069Z,2.80
2022-08-02T12:08:25.428Z,2.97
2022-08-02T12:10:53.377Z,2.47
2022-08-02T12:13:22.078Z,2.30
2022-08-02T12:15:49.566Z,2.13
2022-08-02T12:18:43.227Z,6.90
2022-08-02T12:21:27.063Z,2.43
2022-08-02T12:23:59.501Z,2.37
2022-08-02T12:26:30.160Z,2.60
2022-08-02T12:29:00.507Z,1.97
2022-08-02T12:31:57.351Z,2.37
2022-08-02T12:34:28.178Z,2.20
2022-08-02T12:37:11.198Z,2.53
2022-08-02T12:39:44.537Z,2.43
2022-08-02T12:42:17.902Z,2.00
2022-08-02T12:45:00.796Z,2.37
2022-08-02T12:47:31.178Z,2.23
2022-08-02T12:50:27.823Z,2.17
2022-08-02T12:53:17.153Z,2.30
2022-08-02T12:55:59.789Z,2.60
2022-08-02T12:58:28.687Z,2.47
2022-08-02T13:01:02.256Z,2.80
2022-08-02T13:04:10.325Z,2.10
2022-08-02T13:09:17.208Z,2.33
2022-08-02T13:11:45.377Z,2.20
2022-08-02T13:14:14.974Z,2.23
2022-08-02T13:16:45.928Z,2.07
2022-08-02T13:19:15.876Z,2.63
2022-08-02T13:22:02.403Z,2.97
2022-08-02T13:24:41.268Z,2.07
2022-08-02T13:27:22.423Z,2.40
2022-08-02T13:29:52.230Z,2.43
2022-08-02T13:32:20.392Z,2.20
2022-08-02T13:34:48.377Z,2.90
2022-08-02T13:37:19.078Z,3.00
2022-08-02T13:40:00.502Z,2.70
2022-08-02T13:42:33.611Z,3.33
2022-08-02T13:45:12.651Z,3.00
2022-08-02T13:48:04.269Z,2.87
2022-08-02T13:50:31.954Z,4.00
2022-08-02T13:53:19.398Z,3.20
2022-08-02T13:55:47.239Z,3.10
2022-08-02T13:58:14.875Z,3.43
2022-08-02T14:00:42.673Z,3.53
2022-08-02T14:03:12.244Z,3.23
2022-08-02T14:05:48.609Z,3.53
2022-08-02T14:08:23.043Z,3.40
2022-08-02T14:10:51.633Z,3.67
2022-08-02T14:13:19.905Z,4.20
2022-08-02T14:15:48.070Z,3.10
2022-08-02T14:18:16.037Z,3.37
2022-08-02T14:20:45.507Z,2.80
2022-08-02T14:23:13.159Z,3.10
2022-08-02T14:25:41.744Z,5.00
2022-08-02T14:28:09.497Z,2.90
2022-08-02T14:30:37.560Z,3.13
2022-08-02T14:33:05.641Z,5.10
2022-08-02T14:35:35.367Z,3.03
2022-08-02T14:38:03.777Z,3.90
2022-08-02T14:40:32.181Z,3.00
2022-08-02T14:43:04.616Z,3.50
2022-08-02T14:45:40.096Z,3.50
2022-08-02T14:48:12.246Z,2.90
2022-08-02T14:50:39.985Z,2.73
2022-08-02T14:53:12.045Z,2.70
2022-08-02T14:55:42.965Z,3.30
2022-08-02T14:58:13.527Z,2.27
2022-08-02T15:00:41.974Z,3.77
2022-08-02T15:03:13.745Z,2.43
2022-08-02T15:05:42.756Z,4.07
2022-08-02T15:08:10.658Z,2.50
2022-08-02T15:10:38.244Z,2.70
2022-08-02T15:13:05.976Z,2.50
2022-08-02T15:15:43.417Z,2.77
2022-08-02T15:18:12.491Z,3.27
2022-08-02T15:20:41.480Z,2.27
2022-08-02T15:23:12.048Z,3.00
2022-08-02T15:25:43.933Z,2.67
2022-08-02T15:28:11.201Z,2.57
2022-08-02T15:30:39.370Z,2.63
2022-08-02T15:33:07.053Z,2.77
2022-08-02T15:35:34.746Z,2.50
2022-08-02T15:38:02.279Z,3.30
2022-08-02T15:40:30.826Z,2.60
2022-08-02T15:42:59.056Z,2.80
2022-08-02T15:45:27.992Z,2.60
2022-08-02T15:47:55.529Z,2.50
2022-08-02T15:50:23.493Z,2.47
2022-08-02T15:52:51.050Z,2.70
2022-08-02T15:55:18.886Z,2.77
2022-08-02T15:57:46.509Z,2.80
2022-08-02T16:00:18.277Z,2.90
2022-08-02T16:02:47.823Z,2.83
2022-08-02T16:05:18.394Z,2.80
2022-08-02T16:07:46.850Z,2.40
2022-08-02T16:10:16.838Z,2.30
2022-08-02T16:12:45.202Z,2.70
2022-08-02T16:15:13.484Z,2.70
2022-08-02T16:17:53.541Z,2.60
2022-08-02T16:20:22.538Z,3.10
2022-08-02T16:22:50.230Z,2.20
2022-08-02T16:25:18.076Z,2.70
2022-08-02T16:28:06.217Z,2.30
2022-08-02T16:30:33.994Z,2.83
2022-08-02T16:33:01.561Z,2.80
2022-08-02T16:35:29.814Z,2.60
2022-08-02T16:37:57.630Z,2.60
2022-08-02T16:40:25.889Z,2.67
2022-08-02T16:42:53.875Z,2.40
2022-08-02T16:45:22.777Z,2.80
2022-08-02T16:47:57.539Z,2.83
2022-08-02T16:50:29.280Z,2.53
2022-08-02T16:52:58.870Z,2.47
2022-08-02T16:55:29.142Z,2.90
2022-08-02T16:58:01.143Z,2.90
2022-08-02T17:00:29.579Z,2.73
2022-08-02T17:02:59.666Z,3.17
2022-08-02T17:05:38.068Z,3.03
2022-08-02T17:08:16.982Z,2.70
2022-08-02T17:10:45.229Z,3.00
2022-08-02T17:13:13.139Z,2.20
2022-08-02T17:16:07.713Z,2.03
2022-08-02T17:18:30.243Z,2.20
2022-08-02T17:20:58.343Z,2.80
2022-08-02T17:24:04.194Z,2.57
2022-08-02T17:26:14.205Z,2.30
2022-08-02T17:29:03.717Z,1.97
2022-08-02T17:31:30.277Z,1.97
2022-08-02T17:34:10.946Z,2.73
2022-08-02T17:36:38.707Z,2.13
2022-08-02T17:39:07.578Z,2.30
2022-08-02T17:41:39.163Z,2.50
2022-08-02T17:44:37.596Z,2.77
2022-08-02T17:47:08.499Z,2.50
2022-08-02T17:49:43.836Z,2.63
2022-08-02T17:52:49.122Z,2.43
2022-08-02T17:55:03.726Z,3.90
2022-08-02T17:57:55.250Z,3.10
2022-08-02T18:00:20.584Z,2.83
2022-08-02T18:02:50.589Z,2.87
2022-08-02T18:05:23.523Z,2.37
2022-08-02T18:08:07.376Z,2.57
2022-08-02T18:10:34.880Z,2.43
2022-08-02T18:13:03.847Z,2.67
2022-08-02T18:15:32.414Z,2.43
2022-08-02T18:18:01.174Z,2.73
2022-08-02T18:20:29.165Z,2.63
2022-08-02T18:22:58.485Z,2.47
2022-08-02T18:25:36.836Z,2.60
2022-08-02T18:28:14.588Z,3.00
2022-08-02T18:30:43.848Z,3.20
2022-08-02T18:33:55.766Z,2.40
2022-08-02T18:35:59.373Z,2.97
2022-08-02T18:38:28.639Z,3.20
2022-08-02T18:40:58.871Z,2.87
2022-08-02T18:43:29.321Z,3.60
2022-08-02T18:46:05.323Z,2.90
2022-08-02T18:48:46.474Z,3.30
2022-08-02T18:51:16.276Z,3.13
2022-08-02T18:53:51.492Z,3.70
2022-08-02T18:56:24.584Z,2.90
2022-08-02T18:58:58.727Z,3.03
2022-08-02T19:04:15.509Z,2.80
2022-08-02T19:06:54.999Z,3.43
2022-08-02T19:09:22.760Z,7.63
2022-08-02T19:11:52.985Z,3.90
2022-08-02T19:14:28.061Z,2.90
2022-08-02T19:17:00.558Z,3.07
2022-08-02T19:19:44.750Z,3.33
2022-08-02T19:22:15.876Z,3.07
2022-08-02T19:25:01.248Z,3.27
2022-08-02T19:27:32.727Z,3.40
2022-08-02T19:30:07.823Z,3.30
2022-08-02T19:32:42.375Z,3.73
2022-08-02T19:35:30.620Z,3.60
2022-08-02T19:38:11.241Z,3.33
2022-08-02T19:40:43.727Z,3.70
2022-08-02T19:44:25.536Z,3.73
2022-08-02T19:46:00.904Z,4.10
2022-08-02T19:48:29.039Z,3.50
2022-08-02T19:51:00.987Z,3.83
2022-08-02T19:53:47.122Z,3.93
2022-08-02T19:56:20.648Z,3.87
2022-08-02T19:58:51.354Z,3.77
2022-08-02T20:01:25.411Z,3.13
2022-08-02T20:04:06.756Z,3.43
2022-08-02T20:06:34.522Z,3.60
2022-08-02T20:09:03.950Z,3.50
2022-08-02T20:11:34.710Z,3.33
2022-08-02T20:14:07.942Z,3.43
2022-08-02T20:16:36.705Z,3.83
2022-08-02T20:19:07.864Z,3.60
2022-08-02T20:24:26.638Z,3.43
2022-08-02T20:26:59.473Z,3.17
2022-08-02T20:29:44.528Z,3.90
2022-08-02T20:32:23.739Z,3.50
2022-08-02T20:34:52.503Z,3.53
2022-08-02T20:38:00.480Z,4.07
2022-08-02T20:40:17.072Z,3.83
2022-08-02T20:42:48.000Z,4.30
2022-08-02T20:45:16.899Z,4.53
2022-08-02T20:47:50.719Z,4.30
2022-08-02T20:50:38.258Z,4.33
2022-08-02T20:53:08.306Z,4.70
2022-08-02T20:55:54.110Z,5.20
2022-08-02T20:58:26.578Z,5.13
2022-08-02T21:00:59.368Z,4.87
2022-08-02T21:03:39.467Z,4.47
2022-08-02T21:06:15.087Z,4.17
2022-08-02T21:08:46.868Z,4.20
2022-08-02T21:11:17.980Z,3.70
2022-08-02T21:13:47.371Z,4.10
2022-08-02T21:16:33.535Z,3.90
2022-08-02T21:19:01.578Z,4.20
2022-08-02T21:21:30.098Z,3.90
2022-08-02T21:23:59.943Z,4.10
2022-08-02T21:26:31.129Z,4.07
2022-08-02T21:29:03.825Z,3.70
2022-08-02T21:31:36.461Z,3.53
2022-08-02T21:34:21.886Z,4.17
2022-08-02T21:36:51.032Z,3.63
2022-08-02T21:39:18.891Z,4.00
2022-08-02T21:41:48.422Z,3.67
2022-08-02T21:44:22.000Z,3.60
2022-08-02T21:46:53.835Z,3.63
2022-08-02T21:49:40.592Z,4.00
2022-08-02T21:52:12.292Z,3.17
2022-08-02T21:54:41.090Z,4.10
2022-08-02T21:57:15.513Z,4.40
2022-08-02T21:59:46.251Z,4.57
2022-08-02T22:02:15.330Z,4.07
2022-08-02T22:04:47.893Z,4.47
2022-08-02T22:07:24.047Z,4.40
2022-08-02T22:09:53.456Z,4.63
2022-08-02T22:12:26.591Z,4.63
2022-08-02T22:14:56.402Z,4.87
2022-08-02T22:17:30.404Z,4.70
2022-08-02T22:20:18.386Z,4.37
2022-08-02T22:22:52.160Z,4.50
2022-08-02T22:25:36.244Z,4.40
2022-08-02T22:28:35.101Z,3.90
2022-08-02T22:31:00.286Z,4.53
2022-08-02T22:34:00.888Z,3.87
2022-08-02T22:36:33.047Z,4.03
2022-08-02T22:39:02.174Z,3.47
2022-08-02T22:42:02.447Z,4.03
2022-08-02T22:44:18.737Z,4.00
2022-08-02T22:46:50.047Z,3.97
2022-08-02T22:49:37.044Z,4.27
2022-08-02T22:52:06.537Z,4.10
2022-08-02T22:54:34.679Z,4.23
2022-08-02T22:57:02.697Z,4.17
2022-08-02T22:58:46.604Z,3.00
2022-08-02T22:58:55.202Z,3.57
2022-08-02T22:59:39.495Z,4.20
2022-08-02T23:02:08.453Z,4.33
2022-08-02T23:04:37.045Z,3.63
2022-08-02T23:07:05.160Z,4.07
2022-08-02T23:09:32.999Z,4.10
2022-08-02T23:12:03.501Z,4.40
2022-08-02T23:14:31.363Z,4.07
2022-08-02T23:17:17.687Z,4.40
2022-08-02T23:19:51.242Z,4.40
2022-08-02T23:22:29.820Z,4.97
2022-08-02T23:25:01.015Z,5.13
2022-08-02T23:27:30.106Z,5.03
2022-08-02T23:29:58.149Z,4.90
2022-08-02T23:32:26.994Z,5.07
2022-08-02T23:34:56.216Z,4.83
2022-08-02T23:37:26.656Z,4.47
2022-08-02T23:39:54.998Z,4.77
2022-08-02T23:42:25.414Z,4.80
2022-08-02T23:44:53.863Z,4.97
2022-08-02T23:47:21.891Z,4.83
2022-08-02T23:49:49.876Z,4.10
2022-08-02T23:52:20.714Z,4.63
2022-08-02T23:54:49.057Z,4.83
2022-08-02T23:57:20.319Z,4.73
2022-08-02T23:59:52.118Z,4.77
